Time;durP1;ratioP1;P1;durP2;ratioP2;P2;SDS_P1;SDS_P2;PMS_P1;PMS_P2;Temp;Humidity;BMP_temperature;BMP_pressure;BME280_temperature;BME280_humidity;BME280_pressure;Samples;Min_cycle;Max_cycle;Signal;HPM_P1;HPM_P2
2022/05/20 00:01:12;;;;;;;5.60;2.80;;;;;;;20.38;64.00;96911.84;5073664;28;20045;-79
2022/05/20 00:03:40;;;;;;;9.27;2.75;;;;;;;20.37;63.44;96915.81;5074151;28;20044;-79
2022/05/20 00:06:07;;;;;;;4.68;2.50;;;;;;;20.29;64.07;96919.59;5073532;28;20044;-77
2022/05/20 00:08:33;;;;;;;5.70;2.65;;;;;;;20.31;63.75;96925.56;5074078;28;20051;-79
2022/05/20 00:11:00;;;;;;;5.45;2.92;;;;;;;20.26;64.22;96939.69;5085476;28;20047;-79
2022/05/20 00:13:28;;;;;;;7.07;3.00;;;;;;;20.16;64.68;96937.53;5093821;28;20055;-78
2022/05/20 00:15:56;;;;;;;3.85;2.88;;;;;;;20.12;65.03;96942.19;5094130;28;20051;-80
2022/05/20 00:18:23;;;;;;;6.80;2.42;;;;;;;20.15;65.08;96953.31;5093566;28;20044;-78
2022/05/20 00:20:50;;;;;;;7.03;3.58;;;;;;;20.18;65.19;96963.63;5093977;28;20048;-80
2022/05/20 00:23:17;;;;;;;6.00;3.13;;;;;;;20.20;64.78;96960.50;5093701;28;20097;-81
2022/05/20 00:25:47;;;;;;;7.25;3.15;;;;;;;20.16;65.31;96956.88;5093933;28;20051;-80
2022/05/20 00:28:14;;;;;;;3.55;2.38;;;;;;;20.14;65.59;96951.69;5093427;28;20054;-80
2022/05/20 00:30:41;;;;;;;5.38;2.85;;;;;;;20.17;66.47;96944.66;5093685;28;20506;-78
2022/05/20 00:33:08;;;;;;;5.30;2.72;;;;;;;20.15;66.43;96944.22;5093201;28;20044;-79
2022/05/20 00:35:35;;;;;;;4.65;2.92;;;;;;;20.10;65.86;96944.50;5093838;28;20052;-79
2022/05/20 00:38:04;;;;;;;12.82;3.13;;;;;;;20.02;65.89;96944.38;5093226;28;20067;-78
2022/05/20 00:40:31;;;;;;;9.40;3.50;;;;;;;19.98;66.33;96935.19;5093299;28;20047;-79
2022/05/20 00:43:12;;;;;;;6.60;2.90;;;;;;;19.96;66.64;96939.50;5093593;28;20426;-78
2022/05/20 00:45:39;;;;;;;3.42;2.70;;;;;;;19.93;66.86;96946.56;5093729;28;20040;-80
2022/05/20 00:48:06;;;;;;;5.72;2.90;;;;;;;19.88;66.86;96949.59;5093228;28;20052;-79
2022/05/20 00:50:33;;;;;;;8.10;2.70;;;;;;;19.78;66.43;96945.50;5093702;28;20051;-78
2022/05/20 00:53:01;;;;;;;6.07;2.95;;;;;;;19.71;66.38;96944.53;5093486;28;20051;-78
2022/05/20 00:55:30;;;;;;;7.50;3.30;;;;;;;19.66;66.95;96936.53;5093186;28;20040;-77
2022/05/20 00:58:01;;;;;;;6.70;3.00;;;;;;;19.54;67.24;96935.47;5093560;28;20047;-78
2022/05/20 01:00:31;;;;;;;7.75;3.13;;;;;;;19.53;67.69;96941.38;5093163;28;20494;-78
2022/05/20 01:03:01;;;;;;;4.22;3.08;;;;;;;19.53;67.91;96939.41;5093195;28;20536;-79
2022/05/20 01:05:30;;;;;;;5.90;3.53;;;;;;;19.51;68.01;96930.66;5093116;28;20055;-81
2022/05/20 01:07:58;;;;;;;7.07;3.25;;;;;;;19.50;68.09;96925.50;5093300;28;20656;-80
2022/05/20 01:10:25;;;;;;;7.20;3.53;;;;;;;19.50;68.04;96931.81;5081661;28;20486;-80
2022/05/20 01:12:54;;;;;;;5.43;3.13;;;;;;;19.52;68.30;96943.34;5092653;28;20570;-80
2022/05/20 01:15:23;;;;;;;7.22;3.38;;;;;;;19.53;68.56;96933.88;5092495;28;20513;-78
2022/05/20 01:17:52;;;;;;;4.10;3.28;;;;;;;19.52;68.78;96926.75;5093277;28;20406;-78
2022/05/20 01:20:23;;;;;;;7.15;3.20;;;;;;;19.49;68.51;96929.44;5092473;28;20040;-80
2022/05/20 01:23:01;;;;;;;5.60;3.38;;;;;;;19.47;68.83;96916.00;5092774;28;20075;-81
2022/05/20 01:25:29;;;;;;;8.00;3.70;;;;;;;19.40;68.89;96904.78;5092687;28;20047;-80
2022/05/20 01:27:56;;;;;;;7.07;3.45;;;;;;;19.32;69.41;96900.28;5092648;28;20758;-80
2022/05/20 01:30:25;;;;;;;4.40;3.10;;;;;;;19.32;69.24;96908.56;5092405;28;20395;-80
2022/05/20 01:32:52;;;;;;;9.18;3.63;;;;;;;19.35;69.40;96916.09;5093079;28;20562;-80
2022/05/20 01:35:25;;;;;;;7.30;3.60;;;;;;;19.35;69.42;96912.56;5092823;28;20040;-79
2022/05/20 01:37:53;;;;;;;8.25;3.05;;;;;;;19.32;69.30;96905.81;5093086;28;20101;-81
2022/05/20 01:40:20;;;;;;;6.85;3.28;;;;;;;19.30;69.31;96919.16;5086805;28;20045;-80
2022/05/20 01:42:51;;;;;;;5.38;3.40;;;;;;;19.24;69.49;96910.34;5072622;28;20052;-79
2022/05/20 01:45:27;;;;;;;6.00;3.50;;;;;;;19.19;69.64;96918.13;5072381;28;20052;-80
2022/05/20 01:47:58;;;;;;;7.97;3.38;;;;;;;19.22;69.86;96911.91;5072869;28;20044;-80
2022/05/20 01:50:29;;;;;;;5.68;3.67;;;;;;;19.25;70.03;96916.69;5072521;28;20435;-80
2022/05/20 01:53:04;;;;;;;8.13;3.47;;;;;;;19.28;69.55;96910.44;5072757;28;20442;-79
2022/05/20 01:55:37;;;;;;;10.25;3.38;;;;;;;19.26;69.53;96902.53;5072592;28;20036;-80
2022/05/20 01:58:06;;;;;;;;;;;;;;;19.23;69.66;96902.44;5073297;28;20049;-79
2022/05/20 02:00:35;;;;;;;8.63;3.70;;;;;;;19.13;69.93;96903.00;5072912;28;19924;-80
2022/05/20 02:03:06;;;;;;;5.65;3.50;;;;;;;19.12;70.17;96893.94;5072605;28;20049;-78
2022/05/20 02:05:38;;;;;;;5.95;3.53;;;;;;;19.12;69.93;96890.38;5073346;28;20045;-80
2022/05/20 02:08:17;;;;;;;5.50;3.80;;;;;;;19.03;69.94;96885.84;5074009;28;20453;-79
2022/05/20 02:10:49;;;;;;;6.28;3.88;;;;;;;19.04;69.98;96884.66;5084427;28;20044;-80
2022/05/20 02:13:18;;;;;;;5.82;3.83;;;;;;;19.02;70.18;96873.19;5091833;28;20048;-80
2022/05/20 02:15:48;;;;;;;5.03;3.80;;;;;;;19.03;70.39;96879.50;5095085;28;20044;-80
2022/05/20 02:18:20;;;;;;;6.32;3.53;;;;;;;19.01;70.54;96863.31;5094735;28;20039;-79
2022/05/20 02:20:49;;;;;;;5.07;3.55;;;;;;;19.01;70.70;96866.09;5094798;28;20048;-79
2022/05/20 02:23:23;;;;;;;10.57;3.70;;;;;;;19.05;70.64;96863.38;5093584;28;20395;-79
2022/05/20 02:25:53;;;;;;;6.03;3.67;;;;;;;19.04;70.80;96861.78;5092774;28;20490;-79
2022/05/20 02:28:26;;;;;;;7.95;3.78;;;;;;;18.98;70.50;96853.00;5091567;28;20040;-80
2022/05/20 02:30:53;;;;;;;5.95;4.00;;;;;;;18.96;70.40;96858.09;5092224;28;20044;-80
2022/05/20 02:33:23;;;;;;;5.45;3.60;;;;;;;18.97;70.65;96862.44;5091168;28;20048;-82
2022/05/20 02:35:50;;;;;;;4.78;3.78;;;;;;;18.99;70.96;96864.84;5091360;28;20047;-80
2022/05/20 02:38:21;;;;;;;6.70;3.55;;;;;;;18.99;70.66;96871.16;5090933;28;20063;-80
2022/05/20 02:40:54;;;;;;;6.18;3.60;;;;;;;18.96;71.10;96871.88;5090255;28;20052;-80
2022/05/20 02:43:23;;;;;;;6.32;3.50;;;;;;;18.97;70.85;96867.97;5078053;28;20662;-80
2022/05/20 02:45:51;;;;;;;6.32;3.72;;;;;;;18.97;70.26;96873.47;5091033;28;20502;-80
2022/05/20 02:48:19;;;;;;;11.25;4.25;;;;;;;18.92;70.08;96864.69;5090692;28;20048;-80
2022/05/20 02:50:46;;;;;;;5.38;3.47;;;;;;;18.90;70.21;96869.78;5090251;28;20062;-81
2022/05/20 02:53:13;;;;;;;6.13;3.72;;;;;;;18.82;70.37;96871.56;5090762;28;20047;-79
2022/05/20 02:55:41;;;;;;;5.32;3.78;;;;;;;18.78;70.92;96876.19;5091242;28;20044;-80
2022/05/20 02:58:08;;;;;;;6.72;3.67;;;;;;;18.72;71.48;96875.66;5090762;28;20481;-80
2022/05/20 03:06:22;;;;;;;7.00;3.88;;;;;;;18.57;71.61;96864.59;5090637;28;20047;-80
2022/05/20 03:08:49;;;;;;;7.53;3.88;;;;;;;18.56;71.74;96863.81;5090753;28;20055;-80
2022/05/20 03:11:17;;;;;;;6.88;3.80;;;;;;;18.56;71.81;96863.00;5090130;28;20130;-79
2022/05/20 03:13:43;;;;;;;9.27;4.03;;;;;;;18.54;72.10;96862.59;5088772;28;20055;-79
2022/05/20 03:16:10;;;;;;;6.90;3.92;;;;;;;18.54;72.33;96870.84;5090151;28;20067;-79
2022/05/20 03:18:37;;;;;;;6.38;4.10;;;;;;;18.51;72.45;96861.31;5091087;28;20047;-79
2022/05/20 03:21:03;;;;;;;9.95;4.70;;;;;;;18.48;72.46;96859.31;5090206;28;20403;-79
2022/05/20 03:23:30;;;;;;;7.18;4.28;;;;;;;18.42;72.03;96863.47;5090456;28;20043;-80
2022/05/20 03:25:56;;;;;;;7.25;4.32;;;;;;;18.37;72.05;96866.47;5090670;28;20545;-80
2022/05/20 03:28:24;;;;;;;11.30;4.22;;;;;;;18.34;72.20;96862.50;5090258;28;20483;-80
2022/05/20 03:30:51;;;;;;;10.20;4.15;;;;;;;18.37;72.37;96861.75;5090772;28;20052;-79
2022/05/20 03:33:17;;;;;;;6.63;4.20;;;;;;;18.35;72.65;96855.03;5089566;28;20055;-80
2022/05/20 03:35:44;;;;;;;9.90;4.18;;;;;;;18.36;72.54;96865.69;5090628;28;20063;-80
2022/05/20 03:38:11;;;;;;;7.40;4.00;;;;;;;18.38;72.56;96866.16;5090413;28;20051;-80
2022/05/20 03:40:37;;;;;;;5.07;3.90;;;;;;;18.37;71.93;96864.53;5091420;28;20044;-80
2022/05/20 03:43:05;;;;;;;9.40;3.92;;;;;;;18.35;72.23;96869.59;5089131;28;20044;-79
2022/05/20 03:45:33;;;;;;;7.78;4.15;;;;;;;18.37;72.19;96872.78;5090568;28;20044;-80
2022/05/20 03:47:59;;;;;;;5.65;3.70;;;;;;;18.37;72.00;96878.31;5090637;28;20051;-79
2022/05/20 03:50:26;;;;;;;6.65;3.92;;;;;;;18.37;71.68;96874.75;5090087;28;20040;-80
2022/05/20 03:52:54;;;;;;;5.55;3.85;;;;;;;18.34;71.63;96873.53;5090360;28;20048;-80
2022/05/20 03:55:21;;;;;;;7.10;3.90;;;;;;;18.30;71.43;96867.13;5090146;28;20398;-80
2022/05/20 03:57:47;;;;;;;6.85;4.20;;;;;;;18.29;71.87;96884.03;5090072;28;20047;-80
2022/05/20 04:00:15;;;;;;;6.53;4.15;;;;;;;18.27;72.67;96884.38;5090309;28;20045;-81
2022/05/20 04:02:42;;;;;;;8.30;4.00;;;;;;;18.26;72.47;96888.28;5090481;28;20043;-80
2022/05/20 04:05:09;;;;;;;6.75;4.18;;;;;;;18.26;72.61;96882.75;5088926;28;20048;-80
2022/05/20 04:07:38;;;;;;;7.00;4.45;;;;;;;18.25;72.72;96878.41;5090810;28;20040;-80
2022/05/20 04:10:06;;;;;;;7.60;4.82;;;;;;;18.23;73.27;96884.28;5090231;28;20044;-79
2022/05/20 04:12:34;;;;;;;6.80;4.03;;;;;;;18.25;73.54;96879.19;5088966;28;20048;-80
2022/05/20 04:15:01;;;;;;;9.38;4.20;;;;;;;18.28;73.33;96882.41;5092230;28;20047;-80
2022/05/20 04:17:28;;;;;;;6.78;4.40;;;;;;;18.28;73.14;96885.97;5090802;28;20040;-80
2022/05/20 04:19:56;;;;;;;9.73;4.72;;;;;;;18.30;73.46;96883.66;5091181;28;20211;-79
2022/05/20 04:22:28;;;;;;;8.27;4.60;;;;;;;18.31;73.30;96888.00;5090182;28;20055;-80
2022/05/20 04:24:55;;;;;;;6.72;4.70;;;;;;;18.29;73.08;96882.06;5090058;28;20044;-80
2022/05/20 04:27:21;;;;;;;6.13;4.55;;;;;;;18.29;73.11;96876.53;5089637;28;20047;-79
2022/05/20 04:29:48;;;;;;;5.15;4.00;;;;;;;18.29;72.63;96873.78;5090344;28;20060;-79
2022/05/20 04:32:15;;;;;;;6.43;4.53;;;;;;;18.35;72.59;96874.31;5089847;28;20050;-80
2022/05/20 04:34:41;;;;;;;5.25;4.35;;;;;;;18.38;72.14;96884.66;5089742;28;20044;-80
2022/05/20 04:37:09;;;;;;;5.60;4.20;;;;;;;18.40;71.99;96880.38;5089597;28;20040;-80
2022/05/20 04:39:36;;;;;;;7.70;4.45;;;;;;;18.44;71.79;96884.03;5089904;28;20055;-79
2022/05/20 04:47:34;;;;;;;8.55;5.80;;;;;;;18.55;70.91;96886.25;5072537;28;20439;-78
2022/05/20 04:50:00;;;;;;;7.40;5.25;;;;;;;18.42;70.41;96883.56;5072857;28;20048;-79
2022/05/20 04:52:28;;;;;;;8.15;4.60;;;;;;;18.47;70.63;96883.28;5072875;28;20063;-78
2022/05/20 04:54:54;;;;;;;5.32;3.70;;;;;;;18.49;69.70;96882.94;5072924;28;20071;-77
2022/05/20 04:57:27;;;;;;;4.95;3.55;;;;;;;18.56;69.29;96891.38;5072272;28;20495;-78
2022/05/20 04:59:58;;;;;;;5.15;3.70;;;;;;;18.62;68.91;96889.97;5072786;28;20044;-77
2022/05/20 05:02:26;;;;;;;6.20;3.50;;;;;;;18.69;68.58;96889.38;5072210;28;20117;-78
2022/05/20 05:04:52;;;;;;;5.47;3.83;;;;;;;18.71;68.32;96892.56;5072380;28;20051;-79
2022/05/20 05:07:19;;;;;;;6.57;3.80;;;;;;;18.77;68.88;96888.38;5072048;28;20055;-77
2022/05/20 05:09:47;;;;;;;6.53;3.55;;;;;;;18.84;69.20;96890.50;5072481;28;20040;-77
2022/05/20 05:12:15;;;;;;;4.82;3.47;;;;;;;18.84;68.72;96894.06;5073822;28;20063;-77
2022/05/20 05:14:44;;;;;;;4.70;3.35;;;;;;;18.85;68.58;96889.38;5092349;28;20507;-78
2022/05/20 05:17:13;;;;;;;5.68;3.42;;;;;;;18.91;68.15;96891.47;5092030;28;20044;-78
2022/05/20 05:19:41;;;;;;;6.05;3.28;;;;;;;18.97;67.65;96884.53;5092189;28;20074;-77
2022/05/20 05:22:09;;;;;;;10.20;3.45;;;;;;;19.04;67.42;96889.38;5091070;28;20544;-79
2022/05/20 05:24:36;;;;;;;4.55;2.85;;;;;;;19.12;67.32;96887.59;5092212;28;20048;-79
2022/05/20 05:27:05;;;;;;;5.13;3.30;;;;;;;19.00;67.29;96891.25;5091999;28;20047;-77
2022/05/20 05:29:35;;;;;;;5.35;3.00;;;;;;;19.13;67.44;96895.53;5092370;28;20043;-80
2022/05/20 05:32:01;;;;;;;5.97;3.50;;;;;;;19.19;67.51;96896.03;5091942;28;20048;-77
2022/05/20 05:34:28;;;;;;;6.35;3.70;;;;;;;19.23;67.30;96894.16;5092326;28;20043;-77
2022/05/20 05:36:54;;;;;;;4.28;3.10;;;;;;;19.30;67.46;96891.53;5092428;28;20494;-78
2022/05/20 05:39:21;;;;;;;5.18;3.38;;;;;;;19.39;68.01;96883.84;5091655;28;20048;-78
2022/05/20 05:41:48;;;;;;;4.72;2.97;;;;;;;19.39;67.71;96883.06;5092090;28;20050;-78
2022/05/20 05:44:16;;;;;;;7.45;3.30;;;;;;;19.42;67.33;96876.78;5090034;28;20059;-78
2022/05/20 05:46:42;;;;;;;5.07;3.30;;;;;;;19.37;67.36;96877.91;5092123;28;20055;-78
2022/05/20 05:49:09;;;;;;;4.47;3.10;;;;;;;19.37;67.11;96877.91;5091720;28;20055;-78
2022/05/20 05:51:35;;;;;;;4.78;3.30;;;;;;;19.47;67.24;96876.50;5092266;28;20047;-77
2022/05/20 05:54:02;;;;;;;5.22;3.10;;;;;;;19.52;67.23;96879.81;5091543;28;20109;-77
2022/05/20 05:56:28;;;;;;;7.50;3.22;;;;;;;19.65;67.12;96890.72;5090923;28;20482;-77
2022/05/20 05:58:54;;;;;;;4.60;3.13;;;;;;;19.73;66.32;96881.41;5091960;28;20044;-76
2022/05/20 06:01:22;;;;;;;4.10;3.00;;;;;;;19.72;65.87;96888.91;5091412;28;23140;-78
2022/05/20 06:03:49;;;;;;;5.32;2.92;;;;;;;19.75;66.14;96882.66;5091542;28;20050;-78
2022/05/20 06:06:15;;;;;;;6.63;2.90;;;;;;;19.76;65.96;96887.00;5091303;28;20075;-77
2022/05/20 06:08:42;;;;;;;5.95;2.67;;;;;;;19.87;66.32;96892.75;5091782;28;20040;-78
2022/05/20 06:11:08;;;;;;;6.18;2.83;;;;;;;20.01;65.88;96886.69;5091356;28;20040;-78
2022/05/20 06:13:35;;;;;;;5.38;2.78;;;;;;;20.04;65.16;96881.22;5089971;28;20052;-77
2022/05/20 06:16:01;;;;;;;4.97;2.90;;;;;;;20.11;65.23;96879.78;5091062;28;20052;-76
2022/05/20 06:18:29;;;;;;;3.00;2.45;;;;;;;20.21;64.96;96893.00;5091476;28;20051;-77
2022/05/20 06:20:56;;;;;;;3.53;2.60;;;;;;;20.27;64.64;96888.75;5091532;28;20047;-77
2022/05/20 06:23:24;;;;;;;8.02;2.80;;;;;;;20.36;64.27;96892.09;5090702;28;20044;-77
2022/05/20 06:25:51;;;;;;;4.25;2.70;;;;;;;20.46;63.93;96883.16;5091095;28;20044;-76
2022/05/20 06:28:19;;;;;;;6.45;2.70;;;;;;;20.49;64.02;96884.41;5090765;28;20499;-78
2022/05/20 06:30:46;;;;;;;5.28;2.90;;;;;;;20.50;63.14;96889.56;5091300;28;20075;-78
2022/05/20 06:33:13;;;;;;;5.60;2.55;;;;;;;20.67;63.16;96887.47;5090753;28;20074;-77
2022/05/20 06:41:09;;;;;;;3.97;2.90;;;;;;;20.93;62.85;96881.94;5090879;28;20566;-77
2022/05/20 06:43:37;;;;;;;3.83;2.55;;;;;;;21.04;62.11;96882.91;5090589;28;20043;-77
2022/05/20 06:46:04;;;;;;;3.97;2.25;;;;;;;21.20;62.27;96874.44;5090582;28;20067;-77
2022/05/20 06:48:43;;;;;;;3.30;2.50;;;;;;;21.32;61.24;96877.00;5090951;28;20048;-77
2022/05/20 06:51:12;;;;;;;5.07;2.60;;;;;;;21.40;62.06;96883.41;5090404;28;20545;-79
2022/05/20 06:53:39;;;;;;;3.58;2.35;;;;;;;21.38;62.00;96874.69;5090881;28;20528;-78
2022/05/20 06:56:07;;;;;;;3.72;2.83;;;;;;;21.49;62.51;96880.38;5090508;28;20556;-77
2022/05/20 06:58:33;;;;;;;4.50;2.67;;;;;;;21.61;62.44;96877.34;5090796;28;20048;-77
2022/05/20 07:01:00;;;;;;;5.95;2.65;;;;;;;21.70;62.43;96868.75;5090689;28;20058;-79
2022/05/20 07:03:27;;;;;;;3.00;2.20;;;;;;;21.77;61.35;96868.81;5090327;28;20039;-77
2022/05/20 07:05:54;;;;;;;3.55;2.13;;;;;;;21.86;60.44;96866.56;5090665;28;20040;-77
2022/05/20 07:08:23;;;;;;;5.50;2.58;;;;;;;21.87;59.94;96870.94;5090041;28;20044;-77
2022/05/20 07:10:49;;;;;;;5.70;2.40;;;;;;;21.86;57.83;96866.56;5090529;28;20055;-77
2022/05/20 07:13:16;;;;;;;7.88;2.50;;;;;;;21.88;58.81;96864.22;5089600;28;20067;-76
2022/05/20 07:15:42;;;;;;;3.65;2.10;;;;;;;21.96;58.29;96868.66;5090539;28;20521;-76
2022/05/20 07:18:09;;;;;;;5.93;2.60;;;;;;;22.14;57.55;96878.00;5089959;28;20044;-76
2022/05/20 07:20:35;;;;;;;3.75;2.30;;;;;;;22.27;57.74;96872.16;5090392;28;20132;-76
2022/05/20 07:23:02;;;;;;;3.35;2.28;;;;;;;22.44;58.44;96874.31;5089897;28;20422;-76
2022/05/20 07:25:30;;;;;;;3.85;2.40;;;;;;;22.57;57.51;96864.53;5090221;28;20048;-76
2022/05/20 07:28:00;;;;;;;4.18;2.20;;;;;;;22.74;57.98;96865.03;5090323;28;20050;-76
2022/05/20 07:30:26;;;;;;;5.43;2.70;;;;;;;22.76;57.27;96873.78;5090193;28;20047;-77
2022/05/20 07:32:53;;;;;;;5.25;2.55;;;;;;;22.83;56.64;96871.06;5090273;28;20051;-77
2022/05/20 07:35:20;;;;;;;4.15;2.58;;;;;;;22.99;58.17;96866.06;5089828;28;20052;-76
2022/05/20 07:37:46;;;;;;;3.63;2.30;;;;;;;23.07;57.00;96870.44;5090195;28;20044;-76
2022/05/20 07:40:14;;;;;;;4.63;2.45;;;;;;;23.10;55.89;96863.34;5089936;28;20051;-76
2022/05/20 07:42:41;;;;;;;4.78;2.45;;;;;;;23.11;54.98;96862.94;5089324;28;20048;-77
2022/05/20 07:45:08;;;;;;;5.20;2.50;;;;;;;23.23;54.65;96869.34;5089513;28;20080;-77
2022/05/20 07:47:35;;;;;;;5.35;2.28;;;;;;;23.07;55.24;96867.66;5090089;28;20040;-76
2022/05/20 07:50:04;;;;;;;5.75;2.42;;;;;;;23.18;54.89;96857.44;5089583;28;20051;-79
2022/05/20 07:55:21;;;;;;;3.58;2.30;;;;;;;23.48;54.74;96866.72;5089412;28;20470;-79
2022/05/20 07:57:49;;;;;;;4.10;2.42;;;;;;;23.78;52.93;96864.50;5090037;28;20074;-79
2022/05/20 08:00:16;;;;;;;6.65;2.28;;;;;;;24.40;51.36;96867.03;5089408;28;20036;-80
2022/05/20 08:02:44;;;;;;;3.85;2.47;;;;;;;25.05;51.24;96858.66;5089759;28;20040;-79
2022/05/20 08:05:10;;;;;;;4.75;2.30;;;;;;;25.23;49.85;96859.47;5089236;28;20048;-79
2022/05/20 08:07:40;;;;;;;3.60;2.20;;;;;;;25.44;47.97;96864.19;5089784;28;20044;-80
2022/05/20 08:10:10;;;;;;;3.25;2.20;;;;;;;25.71;50.83;96862.47;5089047;28;20512;-79
2022/05/20 08:12:37;;;;;;;3.03;2.13;;;;;;;25.86;46.80;96856.88;5089392;28;20453;-80
2022/05/20 08:15:06;;;;;;;3.05;2.20;;;;;;;25.76;46.89;96861.28;5089405;28;20044;-79
2022/05/20 08:17:36;;;;;;;2.97;1.98;;;;;;;25.79;47.40;96862.47;5089487;28;20048;-79
2022/05/20 08:20:04;;;;;;;4.13;2.30;;;;;;;25.93;46.41;96857.63;5090176;28;20064;-79
2022/05/20 08:22:32;;;;;;;6.40;2.42;;;;;;;26.28;47.12;96851.03;5093661;28;20044;-80
2022/05/20 08:24:58;;;;;;;5.18;2.13;;;;;;;26.57;46.99;96850.84;5093387;28;20048;-80
2022/05/20 08:27:27;;;;;;;4.22;2.45;;;;;;;26.78;47.37;96842.31;5092964;28;20414;-80
2022/05/20 08:29:54;;;;;;;5.30;2.30;;;;;;;27.03;45.31;96850.44;5093586;28;20498;-80
2022/05/20 08:32:22;;;;;;;4.63;2.42;;;;;;;27.08;45.90;96843.63;5093195;28;20040;-79
2022/05/20 08:34:48;;;;;;;2.63;2.00;;;;;;;27.22;45.30;96835.09;5093463;28;20044;-82
2022/05/20 08:37:17;;;;;;;5.00;2.40;;;;;;;27.41;44.39;96828.13;5093062;28;20044;-78
2022/05/20 08:39:44;;;;;;;3.75;2.05;;;;;;;27.50;41.58;96827.59;5093399;28;20048;-78
2022/05/20 08:42:14;;;;;;;4.25;2.22;;;;;;;27.46;42.11;96833.25;5092760;28;20040;-77
2022/05/20 08:44:42;;;;;;;4.28;2.30;;;;;;;27.51;41.98;96820.78;5073186;28;20053;-79
2022/05/20 08:47:15;;;;;;;5.15;2.00;;;;;;;27.45;41.37;96825.25;5072400;28;20049;-77
2022/05/20 08:49:43;;;;;;;3.63;2.05;;;;;;;27.51;42.13;96817.97;5073021;28;20060;-78
2022/05/20 08:52:11;;;;;;;4.40;2.30;;;;;;;27.55;40.96;96813.16;5072337;28;20226;-78
2022/05/20 08:54:37;;;;;;;3.53;2.00;;;;;;;27.55;41.18;96810.34;5072967;28;20060;-78
2022/05/20 08:57:15;;;;;;;3.67;1.98;;;;;;;27.67;41.21;96807.00;5072427;28;20051;-78
2022/05/20 08:59:41;;;;;;;3.45;2.00;;;;;;;27.79;41.69;96814.88;5072899;28;20040;-79
2022/05/20 09:02:08;;;;;;;5.55;2.70;;;;;;;27.85;38.91;96808.81;5072327;28;20047;-78
2022/05/20 09:04:34;;;;;;;4.78;2.28;;;;;;;28.00;40.31;96810.19;5072773;28;20052;-78
2022/05/20 09:07:05;;;;;;;4.00;2.10;;;;;;;28.05;40.50;96806.91;5072798;28;20045;-79
2022/05/20 09:09:42;;;;;;;3.60;2.00;;;;;;;28.05;38.65;96798.53;5072331;28;20446;-78
2022/05/20 09:12:09;;;;;;;5.53;2.20;;;;;;;27.82;38.04;96799.22;5072191;28;20053;-78
2022/05/20 09:17:22;;;;;;;6.15;2.30;;;;;;;28.01;39.28;96792.97;5092705;28;20047;-78
2022/05/20 09:19:57;;;;;;;3.38;1.90;;;;;;;28.11;39.25;96788.44;5092723;28;20056;-78
2022/05/20 09:22:29;;;;;;;5.93;2.33;;;;;;;28.29;37.29;96794.53;5092149;28;20051;-80
2022/05/20 09:24:55;;;;;;;3.85;2.60;;;;;;;28.36;36.79;96781.69;5092670;28;20040;-78
2022/05/20 09:27:29;;;;;;;6.65;2.40;;;;;;;28.34;38.19;96785.69;5091974;28;20066;-77
2022/05/20 09:29:59;;;;;;;2.60;2.03;;;;;;;28.51;39.38;96780.22;5092564;28;20506;-78
2022/05/20 09:32:30;;;;;;;4.25;2.05;;;;;;;28.59;38.19;96779.66;5090880;28;20051;-79
2022/05/20 09:35:01;;;;;;;5.32;2.00;;;;;;;28.76;37.90;96780.56;5092398;28;20048;-79
2022/05/20 09:37:32;;;;;;;17.27;3.30;;;;;;;29.02;41.21;96775.31;5092365;28;20047;-78
2022/05/20 09:39:59;;;;;;;5.60;2.27;;;;;;;29.17;38.72;96773.81;5092829;28;20299;-78
2022/05/20 09:42:27;;;;;;;4.82;2.13;;;;;;;29.03;37.24;96776.94;5091722;28;20614;-77
2022/05/20 09:44:56;;;;;;;5.32;2.20;;;;;;;29.11;37.66;96772.75;5092156;28;20448;-79
2022/05/20 09:47:31;;;;;;;5.93;2.20;;;;;;;29.16;34.16;96772.25;5091856;28;20122;-78
2022/05/20 09:50:00;;;;;;;4.43;2.30;;;;;;;29.03;34.48;96763.69;5092561;28;20388;-80
2022/05/20 09:52:42;;;;;;;5.47;2.05;;;;;;;29.19;39.54;96765.78;5092075;28;20044;-77
2022/05/20 09:55:15;;;;;;;8.93;2.60;;;;;;;29.27;35.31;96767.22;5091998;28;20059;-78
2022/05/20 09:57:47;;;;;;;8.52;2.78;;;;;;;29.09;36.21;96755.59;5092196;28;20133;-79
2022/05/20 10:00:20;;;;;;;5.70;2.40;;;;;;;29.25;36.04;96755.66;5091741;28;20141;-77
2022/05/20 10:02:55;;;;;;;4.75;2.10;;;;;;;29.15;35.80;96753.84;5091993;28;20053;-78
2022/05/20 10:05:29;;;;;;;3.20;2.10;;;;;;;29.34;36.70;96750.25;5091253;28;20052;-78
2022/05/20 10:08:11;;;;;;;6.15;2.03;;;;;;;29.54;36.27;96746.66;5091870;28;20043;-78
2022/05/20 10:10:50;;;;;;;4.95;2.67;;;;;;;29.50;38.80;96740.31;5091606;28;20036;-80
2022/05/20 10:13:26;;;;;;;6.25;2.67;;;;;;;29.47;34.35;96741.19;5090828;28;20051;-78
2022/05/20 10:16:03;;;;;;;8.13;2.50;;;;;;;29.56;36.06;96738.63;5091966;28;20060;-79
2022/05/20 10:18:38;;;;;;;7.10;3.45;;;;;;;29.40;38.17;96730.13;5090959;28;20127;-77
2022/05/20 10:21:15;;;;;;;5.93;2.70;;;;;;;29.45;38.77;96726.81;5091190;28;20123;-78
2022/05/20 10:23:52;;;;;;;6.47;2.80;;;;;;;29.69;37.58;96724.69;5091333;28;20430;-79
2022/05/20 10:26:32;;;;;;;5.65;2.70;;;;;;;29.79;39.07;96718.03;5090500;28;20395;-79
2022/05/20 10:34:37;;;;;;;6.60;2.70;;;;;;;29.86;35.90;96709.44;5091204;28;20505;-79
2022/05/20 10:37:15;;;;;;;6.03;2.60;;;;;;;29.97;36.89;96712.03;5090807;28;20048;-79
2022/05/20 10:40:06;;;;;;;5.10;2.60;;;;;;;30.10;34.58;96704.47;5090803;28;20040;-79
2022/05/20 10:42:59;;;;;;;4.32;2.67;;;;;;;30.16;36.38;96697.13;5090148;28;20054;-80
2022/05/20 10:48:41;;;;;;;6.43;2.72;;;;;;;30.40;35.81;96694.94;5090817;28;20102;-79
2022/05/20 10:51:19;;;;;;;4.97;2.30;;;;;;;30.33;36.72;96687.47;5090773;28;20054;-79
2022/05/20 10:53:59;;;;;;;7.30;3.00;;;;;;;30.49;35.54;96685.84;5091093;28;20050;-79
2022/05/20 10:56:50;;;;;;;6.13;2.80;;;;;;;30.49;37.83;96675.44;5090435;28;20048;-79
2022/05/20 10:59:31;;;;;;;7.75;3.15;;;;;;;30.46;32.18;96681.13;5080184;28;20069;-79
2022/05/20 11:02:15;;;;;;;4.65;2.65;;;;;;;30.29;32.22;96671.94;5070440;28;20040;-80
2022/05/20 11:04:58;;;;;;;7.70;3.20;;;;;;;30.33;37.99;96679.06;5070037;28;20059;-78
2022/05/20 11:07:57;;;;;;;7.32;3.35;;;;;;;30.24;34.44;96669.66;5069924;28;20041;-80
2022/05/20 11:10:38;;;;;;;6.30;3.20;;;;;;;30.35;33.01;96665.34;5064353;28;20044;-78
2022/05/20 11:13:12;;;;;;;6.95;2.67;;;;;;;30.34;31.15;96658.16;5077368;28;20048;-78
2022/05/20 11:15:50;;;;;;;6.70;2.80;;;;;;;30.23;32.41;96654.03;5090138;28;20457;-78
2022/05/20 11:18:35;;;;;;;5.25;2.65;;;;;;;30.20;31.33;96654.91;5089822;28;20044;-79
2022/05/20 11:21:19;;;;;;;4.20;2.88;;;;;;;30.33;34.09;96650.16;5089834;28;20044;-78
2022/05/20 11:24:13;;;;;;;5.30;3.13;;;;;;;30.44;32.61;96650.69;5090051;28;20059;-77
2022/05/20 11:26:56;;;;;;;6.40;2.90;;;;;;;30.22;31.34;96644.03;5089994;28;20047;-78
2022/05/20 11:29:32;;;;;;;;;;;;;;;30.29;33.65;96633.41;5090165;28;20047;-78
2022/05/20 11:32:03;;;;;;;4.60;3.03;;;;;;;29.96;30.64;96632.59;5090094;28;19920;-77
2022/05/20 11:35:03;;;;;;;3.83;2.72;;;;;;;30.15;34.40;96623.31;5089858;28;20047;-79
2022/05/20 11:38:02;;;;;;;6.57;2.65;;;;;;;30.04;35.05;96622.78;5087270;28;20616;-78
2022/05/20 11:40:55;;;;;;;4.85;2.97;;;;;;;30.08;32.02;96617.09;5090033;28;20051;-80
2022/05/20 11:43:42;;;;;;;7.32;3.08;;;;;;;30.23;33.83;96618.31;5089860;28;20632;-78
2022/05/20 11:46:22;;;;;;;4.00;2.75;;;;;;;30.22;31.60;96622.34;5091466;28;20458;-78
2022/05/20 11:49:13;;;;;;;7.75;3.03;;;;;;;30.24;34.61;96617.09;5091929;28;20048;-76
2022/05/20 11:52:04;;;;;;;7.15;3.03;;;;;;;30.33;33.12;96614.44;5092068;28;20047;-78
2022/05/20 11:54:39;;;;;;;6.45;2.95;;;;;;;30.34;33.75;96601.97;5089995;28;20403;-77
2022/05/20 11:57:09;;;;;;;5.72;3.05;;;;;;;30.28;33.25;96602.91;5091190;28;20048;-78
2022/05/20 11:59:45;;;;;;;6.63;3.10;;;;;;;30.37;35.00;96601.06;5091593;28;20070;-79
2022/05/20 12:02:17;;;;;;;8.55;2.92;;;;;;;30.33;31.58;96605.19;5090732;28;20048;-78
2022/05/20 12:04:45;;;;;;;5.40;2.65;;;;;;;30.20;31.54;96596.72;5090949;28;20043;-79
2022/05/20 12:07:15;;;;;;;4.50;2.78;;;;;;;30.25;33.15;96595.41;5090119;28;20419;-79
2022/05/20 12:09:44;;;;;;;6.10;2.80;;;;;;;30.29;31.91;96593.28;5091574;28;20041;-79
2022/05/20 12:12:15;;;;;;;7.97;3.10;;;;;;;30.35;33.99;96592.31;5091439;28;20055;-78
2022/05/20 12:15:30;;;;;;;5.63;3.15;;;;;;;30.32;33.10;96587.56;5091689;28;20076;-79
2022/05/20 12:18:18;;;;;;;7.75;3.08;;;;;;;30.34;31.48;96585.09;5091464;28;20036;-78
2022/05/20 12:26:27;;;;;;;5.22;2.70;;;;;;;30.28;30.99;96584.06;5090865;28;20059;-78